• Join FlightAware (Why Join?)
  • Login
  • US Flag 
01:26AM EDT


 

Airport Tracker/Info


-or-


 

Live Flight TrackerFlight Track Log ✈ N53NW ✈ 12-Feb-2014 ✈ KPBI - KCHS

Flight Track Log - Related Links

Times and Time Zones

All times are in EST time to prevent confusion due to time zone crossing. See the N53NW flight status page for this flight to view local times or setup timezone preferences in your user account.

Time Position Orientation Groundspeed Altitude Reporting Facility
EST Latitude Longitude Course Direction KTS MPH feet Rate Location/Type
02:32PM 26.7631 -79.9975 336° Northwest 294 338 7,000  Level Miami Center
02:33PM 26.8228 -80.0389 328° Northwest 258 297 9,900 2,460 Climbing Miami Center
02:34PM 26.8275 -80.1133 274° West 223 257 12,000 1,560 Climbing Miami Center
02:35PM 26.8403 -80.1906 281° West 240 276 13,100 1,020 Climbing Miami Center
02:36PM 26.9160 -80.3497 336° Northwest  Level FlightAware Approximate
02:36PM 26.8550 -80.2794 281° West 265 305 14,100  Level Miami Center
02:37PM 26.8931 -80.3481 302° West 265 305 15,100 2,040 Climbing Miami Center
02:39PM 27.0436 -80.4203 337° Northwest 275 316 20,300 2,460 Climbing Miami Center
02:40PM 27.1219 -80.4575 337° Northwest 290 334 22,500 2,100 Climbing Miami Center
02:41PM 27.1981 -80.5067 330° Northwest 303 349 24,500 1,980 Climbing Miami Center
02:42PM 27.2675 -80.5650 323° Northwest 313 360 26,500 1,980 Climbing Miami Center
02:43PM 27.3522 -80.6075 336° Northwest 320 368 28,500 1,980 Climbing Miami Center
02:44PM 27.4389 -80.6406 341° North 326 375 30,500 1,800 Climbing Miami Center
02:45PM 27.5278 -80.6739 342° North 326 375 32,200 1,560 Climbing Miami Center
02:46PM 27.6189 -80.7075 342° North 326 375 33,700 1,320 Climbing Miami Center
02:47PM 27.7097 -80.7411 342° North 331 381 34,900 1,200 Climbing Miami Center
02:48PM 27.8006 -80.7769 341° North 343 395 36,100 1,140 Climbing Miami Center
02:49PM 27.8894 -80.8058 344° North 354 407 37,200 1,140 Climbing Miami Center
02:50PM 27.9844 -80.8422 341° North 361 415 38,400 900 Climbing Miami Center
02:51PM 28.0797 -80.8761 343° North 361 415 39,000 300 Climbing Miami Center
02:52PM 28.1850 -80.9150 342° North 372 428 39,000  Level Miami Center
02:53PM 28.2881 -80.9567 340° North 385 443 39,000  Level Miami Center
02:54PM 28.3933 -80.9958 342° North 392 451 39,000  Level Miami Center
02:55PM 28.4986 -81.0375 341° North 398 458 39,000  Level Miami Center
02:56PM 28.6058 -81.0769 342° North 398 458 39,000  Level Miami Center
02:57PM 28.7194 -81.1214 341° North 398 458 39,000  Level Miami Center
02:58PM 28.8478 -81.1528 348° North 395 455 39,000  Level Jacksonville Center
02:59PM 28.9608 -81.1792 348° North 400 460 39,000  Level Jacksonville Center
03:00PM 29.0739 -81.2058 348° North 400 460 39,000  Level Jacksonville Center
03:01PM 29.1847 -81.2325 348° North 413 475 39,000  Level Jacksonville Center
03:02PM 29.2958 -81.2592 348° North 407 468 39,000  Level Jacksonville Center
03:03PM 29.4089 -81.2833 349° North 412 474 39,000  Level Jacksonville Center
03:04PM 29.5050 -81.3106 346° North 412 474 39,000  Level Jacksonville Center
03:05PM 29.6183 -81.3372 348° North 412 474 39,000 -180 Level Jacksonville Center
03:06PM 29.7353 -81.3497 355° North 412 474 38,700 -660 Descending Jacksonville Center
03:07PM 29.8544 -81.3575 357° North 419 482 37,700 -1,020 Descending Jacksonville Center
03:08PM 29.9756 -81.3628 358° North 424 488 36,700 -1,020 Descending Jacksonville Center
03:09PM 30.0925 -81.3706 357° North 424 488 35,700 -1,200 Descending Jacksonville Center
03:10PM 30.2136 -81.3758 358° North 424 488 34,300 -1,200 Descending Jacksonville Center
03:11PM 30.3328 -81.3836 357° North 424 488 33,300 -660 Descending Jacksonville Center
03:12PM 30.4372 -81.3892 357° North 419 482 33,000 -180 Descending Jacksonville Center
03:13PM 30.5731 -81.3967 357° North 414 476 33,000  Level Jacksonville Center
03:14PM 30.6858 -81.4022 358° North 408 470 33,000  Level Jacksonville Center
03:15PM 30.8008 -81.4100 357° North 408 470 33,000  Level Jacksonville Center
03:16PM 30.9156 -81.4178 357° North 408 470 33,000  Level Jacksonville Center
03:17PM 31.0286 -81.4233 358° North 403 464 33,000 -360 Level Jacksonville Center
03:18PM 31.1414 -81.4289 358° North 403 464 32,300 -1,080 Descending Jacksonville Center
03:19PM 31.2519 -81.4319 359° North 403 464 30,900 -1,320 Descending Jacksonville Center
03:20PM 31.3519 -81.4111 10° North 398 458 29,700 -1,380 Descending Jacksonville Center
03:21PM 31.4686 -81.3825 12° North 393 452 28,200 -1,500 Descending Jacksonville Center
03:22PM 31.5725 -81.3539 13° North 382 440 26,800 -1,380 Descending Jacksonville Center
03:23PM 31.6661 -81.3281 13° North 382 440 25,500 -1,440 Descending Jacksonville Center
03:24PM 31.7786 -81.2992 12° North 376 433 24,000 -1,440 Descending Jacksonville Center
03:25PM 31.8703 -81.2756 12° North 369 425 22,700 -1,500 Descending Jacksonville Center
03:26PM 31.9656 -81.2150 28° Northeast 364 419 21,100 -1,080 Descending Jacksonville Center
03:27PM 32.0203 -81.1086 59° Northeast 350 403 20,600 -840 Descending Jacksonville Center
03:28PM 32.0733 -81.0244 53° Northeast 358 412 19,500 -1,320 Descending Jacksonville Center
03:29PM 32.1344 -80.9200 55° Northeast 353 406 18,000 -1,260 Descending Jacksonville Center
03:30PM 32.1833 -80.8331 56° Northeast 347 399 17,000 -1,200 Descending Jacksonville Center
03:31PM 32.2400 -80.7286 57° Northeast 347 399 15,600 -1,380 Descending Jacksonville Center
03:32PM 32.2906 -80.6414 56° Northeast 328 377 14,300 -1,320 Descending Jacksonville Center
03:33PM 32.3392 -80.5617 54° Northeast 312 359 13,000 -1,380 Descending Jacksonville Center
03:34PM 32.3836 -80.4817 57° Northeast 299 344 11,600 -1,320 Descending Jacksonville Center
03:35PM 32.4281 -80.3994 57° Northeast 291 335 10,400 -1,260 Descending Jacksonville Center
03:36PM 32.4725 -80.3219 56° Northeast 284 327 9,100 -1,380 Descending Jacksonville Center
03:37PM 32.5186 -80.2392 57° Northeast 284 327 7,700 -1,320 Descending Jacksonville Center
03:38PM 32.5631 -80.1639 55° Northeast 284 327 6,500 -1,260 Descending Jacksonville Center
03:39PM 32.6053 -80.0886 56° Northeast 284 327 5,200 -1,320 Descending Jacksonville Center
03:40PM 32.6456 -80.0208 55° Northeast 273 314 3,900 -1,320 Descending Jacksonville Center
03:41PM 32.6794 -79.9606 56° Northeast 248 285 2,600 -900 Descending Jacksonville Center
03:42PM 32.7097 -79.9103 54° Northeast 210 242 2,100 -300 Descending Jacksonville Center
03:43PM 32.7561 -79.9308 340° North 134 154 2,100  Level Jacksonville Center
03:45PM 32.8833 -80.0333 328° Northwest  Level FlightAware Approximate
03:52PM 32.8986 -80.0405 328° Northwest  Level Estimated
03:53PM 32.8986 -80.0405 328° Northwest  Level Estimated
03:54PM 32.8986 -80.0405 328° Northwest  Level Estimated
03:55PM 32.8986 -80.0405 328° Northwest  Level Estimated